Big Cove Tannery, PA (17212)

7:54 PM EST on November 25, 2014 (GMT -0500)
Ayr Township | Change Station
CLOSE
Current Station
Personal Weather Station
Location: McConnellsburg, PA
Elevation: 975 ft
Nearby Weather Stations
Active Advisory: Winter Storm Warning Active Notice: Record Report

Elev 975 ft 39.92 °N, 77.99 °W | Updated 3 seconds ago

Clear
Clear
44.4 °F
Feels Like 44 °F
N
1.6
Wind Variable Wind from WSW
Gusts 4.5 mph

Today
High -- | Low -- °F
--% Chance of Precip.
Yesterday
High -- | Low -- °F
Precip. -- in
7:08 AM 4:49 PM
Waxing Crescent, 15% visible
Pressure 30.13 in
Visibility 10.0 miles
Clouds Clear
Windchill 44 °F
Dew Point -9 °F
Humidity 10%
Rainfall 0.00 in
Snow Depth Not available.
UV 0 out of 12
Pollen .10 out of 12
Air Quality Not available.
Flu Activity Not available.
METAR KHGR 252353Z 15005KT 10SM CLR 08/M02 A3009 RMK AO2 SLP202 T00781022 10122 20061 53022

More Conditions Fewer Conditions

Pressure 30.13 in
Visibility 10.0 miles
Clouds Clear
Windchill 44 °F
Dew Point -9 °F
Humidity 10%
Rainfall 0.00 in
Snow Depth Not available.
UV 0 out of 12
Pollen .10 out of 12
Air Quality Not available.
Flu Activity Not available.
METAR KHGR 252353Z 15005KT 10SM CLR 08/M02 A3009 RMK AO2 SLP202 T00781022 10122 20061 53022

More Conditions Fewer Conditions

10-Day Weather Forecast

Almanac

Astronomy

Nov. 25, 2014 Rise Set
Actual Time
Civil Twilight
Nautical Twilight
Astronomical Twilight
Moon
Length of Visible Light
Length of Day
Tomorrow will be .
, % of the Moon is Illuminated

Today's Extremes

State Highs State Lows

Community

WunderPhotos

Upload Photos

1,773,629 photos uploaded!

WunderBlogs® & News

Nearby

Air Quality

  Air Quality AQ Index Pollutant
Not available.

Snow Depth

Station Depth Elevation

Earthquake Activity

City Distance Mag. Time & Date
Minimum magnitude displayed is 2.5.

Coastal Water Temperatures

Place Temperature

Nearby Weather Stations